Woodland Park, Michigan
Current Conditions -  °F | °C
As of 3:14 AM on Friday 31 Oct 2014 (Local Time) from KRQB Reporting Station
Light Rain Light Rain  
Wind Chill: 41°   Ceiling: 2000
Heat Index: 41°   Visibility: 5mi
Dew Point: 41°   Wind: 3mph
Humidity: 100%   Direction: 310°NW
Pressure: 29.91"   Gusts: NA
Location:  43.7473°N, 85.8756°W
Report Text: KRQB 310714Z AUTO 31003KT 5SM -RA SCT013 BKN020 OVC033 05/05 A2991 RMK AO2 P0001 T00510051
Loading
Personal Weather Stations






























Interactive Weather Map
Tropical Storm Tracking
New forecast layout! Learn more

10-Day Weather Forecast

Advertisements
Track Severe Weather on mobile